sensor_id;sensor_type;location;lat;lon;timestamp;pressure;altitude;pressure_sealevel;temperature;humidity
33153;BME280;19509;43.862;26.176;2023-02-04T00:00:43;100651.03;;;1.40;74.27
33153;BME280;19509;43.862;26.176;2023-02-04T00:03:10;100639.66;;;1.30;76.71
33153;BME280;19509;43.862;26.176;2023-02-04T00:05:35;100633.66;;;1.28;78.40
33153;BME280;19509;43.862;26.176;2023-02-04T00:08:01;100629.22;;;1.18;79.02
33153;BME280;19509;43.862;26.176;2023-02-04T00:10:28;100631.75;;;1.20;80.13
33153;BME280;19509;43.862;26.176;2023-02-04T00:12:53;100632.19;;;1.15;81.43
33153;BME280;19509;43.862;26.176;2023-02-04T00:15:19;100624.31;;;1.06;81.99
33153;BME280;19509;43.862;26.176;2023-02-04T00:17:44;100622.53;;;0.97;83.08
33153;BME280;19509;43.862;26.176;2023-02-04T00:20:12;100612.06;;;0.95;83.68
33153;BME280;19509;43.862;26.176;2023-02-04T00:22:37;100605.09;;;0.94;84.21
33153;BME280;19509;43.862;26.176;2023-02-04T00:25:03;100601.34;;;0.97;84.67
33153;BME280;19509;43.862;26.176;2023-02-04T00:27:28;100606.69;;;0.87;85.23
33153;BME280;19509;43.862;26.176;2023-02-04T00:29:54;100591.91;;;0.84;85.34
33153;BME280;19509;43.862;26.176;2023-02-04T00:32:19;100598.34;;;0.82;86.10
33153;BME280;19509;43.862;26.176;2023-02-04T00:34:44;100593.88;;;0.82;86.38
33153;BME280;19509;43.862;26.176;2023-02-04T00:37:10;100577.88;;;0.74;86.99
33153;BME280;19509;43.862;26.176;2023-02-04T00:39:35;100574.34;;;0.83;86.84
33153;BME280;19509;43.862;26.176;2023-02-04T00:42:01;100587.88;;;0.80;87.15
33153;BME280;19509;43.862;26.176;2023-02-04T00:44:26;100573.06;;;0.87;87.24
33153;BME280;19509;43.862;26.176;2023-02-04T00:46:52;100562.75;;;0.84;87.26
33153;BME280;19509;43.862;26.176;2023-02-04T00:49:17;100566.16;;;0.77;87.83
33153;BME280;19509;43.862;26.176;2023-02-04T00:51:43;100556.84;;;0.73;88.35
33153;BME280;19509;43.862;26.176;2023-02-04T00:54:11;100563.38;;;0.78;88.72
33153;BME280;19509;43.862;26.176;2023-02-04T00:56:37;100550.66;;;0.82;88.51
33153;BME280;19509;43.862;26.176;2023-02-04T00:59:02;100540.91;;;0.82;89.00
33153;BME280;19509;43.862;26.176;2023-02-04T01:01:28;100545.66;;;0.79;89.10
33153;BME280;19509;43.862;26.176;2023-02-04T01:03:54;100534.22;;;0.78;89.28
33153;BME280;19509;43.862;26.176;2023-02-04T01:06:19;100536.44;;;0.83;88.92
33153;BME280;19509;43.862;26.176;2023-02-04T01:08:45;100519.84;;;0.81;89.57
33153;BME280;19509;43.862;26.176;2023-02-04T01:11:10;100518.00;;;0.81;89.88
33153;BME280;19509;43.862;26.176;2023-02-04T01:13:36;100517.19;;;0.81;89.91
33153;BME280;19509;43.862;26.176;2023-02-04T01:16:01;100504.78;;;0.81;90.34
33153;BME280;19509;43.862;26.176;2023-02-04T01:18:27;100499.34;;;0.83;90.00
33153;BME280;19509;43.862;26.176;2023-02-04T01:20:52;100492.69;;;0.79;90.35
33153;BME280;19509;43.862;26.176;2023-02-04T01:23:17;100494.19;;;0.81;90.44
33153;BME280;19509;43.862;26.176;2023-02-04T01:25:43;100478.44;;;0.80;90.53
33153;BME280;19509;43.862;26.176;2023-02-04T01:28:08;100480.94;;;0.81;90.56
33153;BME280;19509;43.862;26.176;2023-02-04T01:30:34;100471.09;;;0.74;90.92
33153;BME280;19509;43.862;26.176;2023-02-04T01:32:59;100472.09;;;0.73;90.99
33153;BME280;19509;43.862;26.176;2023-02-04T01:35:25;100463.31;;;0.72;91.12
33153;BME280;19509;43.862;26.176;2023-02-04T01:37:50;100456.72;;;0.76;91.39
33153;BME280;19509;43.862;26.176;2023-02-04T01:40:16;100450.19;;;0.70;91.22
33153;BME280;19509;43.862;26.176;2023-02-04T01:42:41;100451.25;;;0.78;91.46
33153;BME280;19509;43.862;26.176;2023-02-04T01:45:07;100443.19;;;0.79;91.18
33153;BME280;19509;43.862;26.176;2023-02-04T01:47:33;100445.81;;;0.79;91.30
33153;BME280;19509;43.862;26.176;2023-02-04T01:49:59;100444.59;;;0.74;91.36
33153;BME280;19509;43.862;26.176;2023-02-04T01:52:34;100436.22;;;0.78;91.54
33153;BME280;19509;43.862;26.176;2023-02-04T01:55:01;100436.88;;;0.80;91.74
33153;BME280;19509;43.862;26.176;2023-02-04T01:57:27;100439.63;;;0.88;91.50
33153;BME280;19509;43.862;26.176;2023-02-04T01:59:54;100428.88;;;0.90;91.26
33153;BME280;19509;43.862;26.176;2023-02-04T02:02:41;100418.56;;;0.87;91.30
33153;BME280;19509;43.862;26.176;2023-02-04T02:05:09;100411.09;;;0.82;91.51
33153;BME280;19509;43.862;26.176;2023-02-04T02:07:35;100416.22;;;0.84;91.54
33153;BME280;19509;43.862;26.176;2023-02-04T02:10:03;100408.56;;;0.81;91.60
33153;BME280;19509;43.862;26.176;2023-02-04T02:12:29;100404.88;;;0.74;91.76
33153;BME280;19509;43.862;26.176;2023-02-04T02:14:54;100402.38;;;0.90;91.70
33153;BME280;19509;43.862;26.176;2023-02-04T02:17:20;100401.25;;;0.92;91.37
33153;BME280;19509;43.862;26.176;2023-02-04T02:19:45;100395.13;;;0.92;91.32
33153;BME280;19509;43.862;26.176;2023-02-04T02:22:24;100397.44;;;0.95;90.89
33153;BME280;19509;43.862;26.176;2023-02-04T02:24:52;100387.31;;;0.90;91.08
33153;BME280;19509;43.862;26.176;2023-02-04T02:27:18;100392.78;;;0.89;91.90
33153;BME280;19509;43.862;26.176;2023-02-04T02:29:44;100387.00;;;0.93;91.52
33153;BME280;19509;43.862;26.176;2023-02-04T02:32:11;100391.00;;;0.98;91.37
33153;BME280;19509;43.862;26.176;2023-02-04T02:34:38;100380.41;;;0.98;91.41
33153;BME280;19509;43.862;26.176;2023-02-04T02:37:05;100373.94;;;0.92;91.72
33153;BME280;19509;43.862;26.176;2023-02-04T02:39:33;100370.81;;;0.97;91.15
33153;BME280;19509;43.862;26.176;2023-02-04T02:41:59;100369.19;;;1.04;90.99
33153;BME280;19509;43.862;26.176;2023-02-04T02:44:25;100361.25;;;1.04;91.41
33153;BME280;19509;43.862;26.176;2023-02-04T02:46:52;100355.78;;;1.05;91.31
33153;BME280;19509;43.862;26.176;2023-02-04T02:49:18;100349.66;;;1.05;91.50
33153;BME280;19509;43.862;26.176;2023-02-04T02:51:45;100339.28;;;1.11;91.33
33153;BME280;19509;43.862;26.176;2023-02-04T02:54:27;100338.59;;;1.09;91.30
33153;BME280;19509;43.862;26.176;2023-02-04T02:56:54;100333.44;;;1.08;91.66
33153;BME280;19509;43.862;26.176;2023-02-04T02:59:19;100337.44;;;1.12;91.38
33153;BME280;19509;43.862;26.176;2023-02-04T03:01:48;100324.88;;;1.14;91.89
33153;BME280;19509;43.862;26.176;2023-02-04T03:04:15;100324.38;;;1.10;91.81
33153;BME280;19509;43.862;26.176;2023-02-04T03:06:42;100313.97;;;1.17;91.97
33153;BME280;19509;43.862;26.176;2023-02-04T03:09:08;100305.66;;;1.12;91.76
33153;BME280;19509;43.862;26.176;2023-02-04T03:11:33;100305.03;;;1.18;91.80
33153;BME280;19509;43.862;26.176;2023-02-04T03:13:59;100299.59;;;1.20;91.63
33153;BME280;19509;43.862;26.176;2023-02-04T03:16:29;100286.78;;;1.15;91.89
33153;BME280;19509;43.862;26.176;2023-02-04T03:18:58;100297.91;;;1.18;92.01
33153;BME280;19509;43.862;26.176;2023-02-04T03:21:25;100290.47;;;1.22;92.26
33153;BME280;19509;43.862;26.176;2023-02-04T03:23:50;100287.97;;;1.21;91.85
33153;BME280;19509;43.862;26.176;2023-02-04T03:26:16;100273.41;;;1.25;92.06
33153;BME280;19509;43.862;26.176;2023-02-04T03:28:42;100268.94;;;1.25;92.09
33153;BME280;19509;43.862;26.176;2023-02-04T03:31:08;100274.94;;;1.27;91.64
33153;BME280;19509;43.862;26.176;2023-02-04T03:33:33;100266.81;;;1.29;91.94
33153;BME280;19509;43.862;26.176;2023-02-04T03:36:00;100261.81;;;1.26;91.99
33153;BME280;19509;43.862;26.176;2023-02-04T03:38:26;100262.31;;;1.21;92.21
33153;BME280;19509;43.862;26.176;2023-02-04T03:40:51;100259.84;;;1.28;92.58
33153;BME280;19509;43.862;26.176;2023-02-04T03:43:17;100248.09;;;1.30;92.42
33153;BME280;19509;43.862;26.176;2023-02-04T03:45:42;100242.31;;;1.35;92.30
33153;BME280;19509;43.862;26.176;2023-02-04T03:48:08;100245.16;;;1.41;91.95
33153;BME280;19509;43.862;26.176;2023-02-04T03:50:33;100231.59;;;1.45;91.89
33153;BME280;19509;43.862;26.176;2023-02-04T03:52:59;100233.09;;;1.47;91.79
33153;BME280;19509;43.862;26.176;2023-02-04T03:55:24;100232.41;;;1.45;92.00
33153;BME280;19509;43.862;26.176;2023-02-04T03:57:51;100227.31;;;1.52;91.96
33153;BME280;19509;43.862;26.176;2023-02-04T04:00:17;100219.16;;;1.45;92.34
33153;BME280;19509;43.862;26.176;2023-02-04T04:02:42;100221.00;;;1.53;91.88
33153;BME280;19509;43.862;26.176;2023-02-04T04:05:08;100214.41;;;1.57;91.93
33153;BME280;19509;43.862;26.176;2023-02-04T04:07:33;100205.63;;;1.56;92.20
33153;BME280;19509;43.862;26.176;2023-02-04T04:09:59;100206.97;;;1.60;91.98
33153;BME280;19509;43.862;26.176;2023-02-04T04:12:24;100211.28;;;1.70;91.38
33153;BME280;19509;43.862;26.176;2023-02-04T04:14:50;100203.00;;;1.64;91.64
33153;BME280;19509;43.862;26.176;2023-02-04T04:17:15;100196.66;;;1.57;92.26
33153;BME280;19509;43.862;26.176;2023-02-04T04:19:40;100193.31;;;1.47;93.30
33153;BME280;19509;43.862;26.176;2023-02-04T04:22:08;100201.47;;;1.54;92.76
33153;BME280;19509;43.862;26.176;2023-02-04T04:24:33;100192.69;;;1.61;92.74
33153;BME280;19509;43.862;26.176;2023-02-04T04:26:58;100189.88;;;1.63;92.72
33153;BME280;19509;43.862;26.176;2023-02-04T04:29:24;100187.25;;;1.71;92.78
33153;BME280;19509;43.862;26.176;2023-02-04T04:31:49;100193.22;;;1.73;92.89
33153;BME280;19509;43.862;26.176;2023-02-04T04:34:14;100192.88;;;1.76;92.45
33153;BME280;19509;43.862;26.176;2023-02-04T04:36:40;100193.88;;;1.75;92.58
33153;BME280;19509;43.862;26.176;2023-02-04T04:39:05;100189.09;;;1.79;92.08
33153;BME280;19509;43.862;26.176;2023-02-04T04:41:31;100189.91;;;1.79;92.81
33153;BME280;19509;43.862;26.176;2023-02-04T04:43:56;100188.75;;;1.74;92.86
33153;BME280;19509;43.862;26.176;2023-02-04T04:46:21;100190.41;;;1.75;92.17
33153;BME280;19509;43.862;26.176;2023-02-04T04:48:47;100183.13;;;1.77;92.86
33153;BME280;19509;43.862;26.176;2023-02-04T04:51:12;100187.13;;;1.81;92.17
33153;BME280;19509;43.862;26.176;2023-02-04T04:53:38;100189.41;;;1.76;92.48
33153;BME280;19509;43.862;26.176;2023-02-04T04:56:03;100191.91;;;1.77;93.01
33153;BME280;19509;43.862;26.176;2023-02-04T04:58:29;100182.59;;;1.73;92.94
33153;BME280;19509;43.862;26.176;2023-02-04T05:00:54;100184.78;;;1.78;92.22
33153;BME280;19509;43.862;26.176;2023-02-04T05:03:19;100193.06;;;1.75;92.75
33153;BME280;19509;43.862;26.176;2023-02-04T05:05:45;100190.59;;;1.89;92.26
33153;BME280;19509;43.862;26.176;2023-02-04T05:08:10;100193.88;;;1.83;92.68
33153;BME280;19509;43.862;26.176;2023-02-04T05:10:42;100187.13;;;1.81;92.71
33153;BME280;19509;43.862;26.176;2023-02-04T05:13:08;100190.78;;;1.88;92.60
33153;BME280;19509;43.862;26.176;2023-02-04T05:15:34;100194.56;;;1.94;92.23
33153;BME280;19509;43.862;26.176;2023-02-04T05:17:59;100196.91;;;1.88;92.23
33153;BME280;19509;43.862;26.176;2023-02-04T05:20:25;100198.41;;;1.99;91.60
33153;BME280;19509;43.862;26.176;2023-02-04T05:22:50;100191.25;;;2.00;91.52
33153;BME280;19509;43.862;26.176;2023-02-04T05:25:16;100190.63;;;1.98;91.59
33153;BME280;19509;43.862;26.176;2023-02-04T05:27:42;100193.75;;;1.93;91.90
33153;BME280;19509;43.862;26.176;2023-02-04T05:30:12;100196.94;;;2.05;91.32
33153;BME280;19509;43.862;26.176;2023-02-04T05:32:37;100190.13;;;2.02;91.59
33153;BME280;19509;43.862;26.176;2023-02-04T05:35:03;100195.41;;;2.02;91.98
33153;BME280;19509;43.862;26.176;2023-02-04T05:37:29;100198.06;;;1.94;91.77
33153;BME280;19509;43.862;26.176;2023-02-04T05:39:54;100192.78;;;2.02;91.73
33153;BME280;19509;43.862;26.176;2023-02-04T05:42:20;100188.97;;;2.05;91.26
33153;BME280;19509;43.862;26.176;2023-02-04T05:44:45;100192.63;;;2.04;92.07
33153;BME280;19509;43.862;26.176;2023-02-04T05:47:10;100193.44;;;2.04;91.73
33153;BME280;19509;43.862;26.176;2023-02-04T05:49:36;100187.44;;;2.10;91.55
33153;BME280;19509;43.862;26.176;2023-02-04T05:52:01;100193.09;;;2.16;91.77
33153;BME280;19509;43.862;26.176;2023-02-04T05:54:27;100194.13;;;2.15;91.53
33153;BME280;19509;43.862;26.176;2023-02-04T05:56:52;100192.94;;;2.17;91.78
33153;BME280;19509;43.862;26.176;2023-02-04T05:59:18;100193.59;;;2.19;91.78
33153;BME280;19509;43.862;26.176;2023-02-04T06:01:43;100193.97;;;2.24;91.41
33153;BME280;19509;43.862;26.176;2023-02-04T06:04:08;100198.56;;;2.30;91.44
33153;BME280;19509;43.862;26.176;2023-02-04T06:06:34;100198.75;;;2.29;91.53
33153;BME280;19509;43.862;26.176;2023-02-04T06:08:59;100198.75;;;2.37;91.57
33153;BME280;19509;43.862;26.176;2023-02-04T06:11:25;100199.25;;;2.32;91.53
33153;BME280;19509;43.862;26.176;2023-02-04T06:13:51;100196.09;;;2.37;91.00
33153;BME280;19509;43.862;26.176;2023-02-04T06:16:16;100200.91;;;2.33;91.47
33153;BME280;19509;43.862;26.176;2023-02-04T06:18:41;100203.56;;;2.33;91.54
33153;BME280;19509;43.862;26.176;2023-02-04T06:21:07;100209.06;;;2.48;91.44
33153;BME280;19509;43.862;26.176;2023-02-04T06:23:32;100213.00;;;2.60;91.49
33153;BME280;19509;43.862;26.176;2023-02-04T06:26:00;100195.72;;;2.65;91.14
33153;BME280;19509;43.862;26.176;2023-02-04T06:28:25;100204.19;;;2.68;91.46
33153;BME280;19509;43.862;26.176;2023-02-04T06:30:50;100197.88;;;2.77;91.41
33153;BME280;19509;43.862;26.176;2023-02-04T06:33:16;100192.91;;;2.74;90.80
33153;BME280;19509;43.862;26.176;2023-02-04T06:35:41;100193.38;;;2.86;91.13
33153;BME280;19509;43.862;26.176;2023-02-04T06:38:07;100197.88;;;2.86;90.99
33153;BME280;19509;43.862;26.176;2023-02-04T06:40:32;100206.00;;;2.84;90.94
33153;BME280;19509;43.862;26.176;2023-02-04T06:42:58;100205.16;;;2.83;91.20
33153;BME280;19509;43.862;26.176;2023-02-04T06:45:23;100208.00;;;2.82;91.12
33153;BME280;19509;43.862;26.176;2023-02-04T06:47:48;100213.44;;;2.89;91.21
33153;BME280;19509;43.862;26.176;2023-02-04T06:50:14;100208.16;;;2.80;91.24
33153;BME280;19509;43.862;26.176;2023-02-04T06:52:46;100204.34;;;2.83;91.19
33153;BME280;19509;43.862;26.176;2023-02-04T06:55:15;100198.22;;;2.82;91.17
33153;BME280;19509;43.862;26.176;2023-02-04T06:57:41;100201.50;;;2.84;91.42
33153;BME280;19509;43.862;26.176;2023-02-04T07:00:07;100193.88;;;2.81;91.22
33153;BME280;19509;43.862;26.176;2023-02-04T07:02:34;100204.84;;;2.78;91.84
33153;BME280;19509;43.862;26.176;2023-02-04T07:04:59;100214.16;;;2.82;91.93
33153;BME280;19509;43.862;26.176;2023-02-04T07:07:25;100208.84;;;2.82;92.28
33153;BME280;19509;43.862;26.176;2023-02-04T07:09:51;100221.44;;;2.80;91.54
33153;BME280;19509;43.862;26.176;2023-02-04T07:12:17;100202.53;;;2.75;91.89
33153;BME280;19509;43.862;26.176;2023-02-04T07:14:43;100214.94;;;2.91;91.09
33153;BME280;19509;43.862;26.176;2023-02-04T07:17:08;100195.22;;;2.86;91.42
33153;BME280;19509;43.862;26.176;2023-02-04T07:19:34;100205.47;;;2.89;92.11
33153;BME280;19509;43.862;26.176;2023-02-04T07:22:01;100202.50;;;2.83;92.29
33153;BME280;19509;43.862;26.176;2023-02-04T07:24:26;100205.63;;;2.95;91.60
33153;BME280;19509;43.862;26.176;2023-02-04T07:26:51;100210.28;;;3.01;91.67
33153;BME280;19509;43.862;26.176;2023-02-04T07:29:17;100211.63;;;2.97;91.77
33153;BME280;19509;43.862;26.176;2023-02-04T07:31:45;100214.47;;;2.96;91.48
33153;BME280;19509;43.862;26.176;2023-02-04T07:34:14;100207.00;;;2.83;91.49
33153;BME280;19509;43.862;26.176;2023-02-04T07:36:40;100219.41;;;2.99;91.62
33153;BME280;19509;43.862;26.176;2023-02-04T07:39:06;100212.63;;;2.96;91.36
33153;BME280;19509;43.862;26.176;2023-02-04T07:41:31;100207.13;;;3.06;91.34
33153;BME280;19509;43.862;26.176;2023-02-04T07:43:57;100215.59;;;3.10;90.75
33153;BME280;19509;43.862;26.176;2023-02-04T07:46:23;100209.41;;;3.17;90.48
33153;BME280;19509;43.862;26.176;2023-02-04T07:48:49;100213.13;;;3.00;91.00
33153;BME280;19509;43.862;26.176;2023-02-04T07:51:14;100214.25;;;3.05;91.31
33153;BME280;19509;43.862;26.176;2023-02-04T07:53:40;100198.28;;;3.05;90.85
33153;BME280;19509;43.862;26.176;2023-02-04T07:56:05;100210.59;;;3.06;90.34
33153;BME280;19509;43.862;26.176;2023-02-04T07:58:31;100207.75;;;3.08;91.13
33153;BME280;19509;43.862;26.176;2023-02-04T08:00:56;100208.09;;;3.13;90.70
33153;BME280;19509;43.862;26.176;2023-02-04T08:03:21;100207.91;;;3.15;90.01
33153;BME280;19509;43.862;26.176;2023-02-04T08:05:47;100205.44;;;3.05;90.60
33153;BME280;19509;43.862;26.176;2023-02-04T08:08:12;100211.09;;;3.10;90.25
33153;BME280;19509;43.862;26.176;2023-02-04T08:10:38;100210.91;;;3.12;90.95
33153;BME280;19509;43.862;26.176;2023-02-04T08:13:03;100212.41;;;3.14;90.71
33153;BME280;19509;43.862;26.176;2023-02-04T08:15:28;100201.75;;;3.14;90.88
33153;BME280;19509;43.862;26.176;2023-02-04T08:17:54;100215.72;;;3.08;90.80
33153;BME280;19509;43.862;26.176;2023-02-04T08:20:19;100218.75;;;2.97;91.14
33153;BME280;19509;43.862;26.176;2023-02-04T08:22:45;100209.94;;;3.13;91.43
33153;BME280;19509;43.862;26.176;2023-02-04T08:25:11;100214.06;;;3.15;90.60
33153;BME280;19509;43.862;26.176;2023-02-04T08:27:37;100221.00;;;3.24;91.19
33153;BME280;19509;43.862;26.176;2023-02-04T08:30:03;100219.47;;;3.38;90.45
33153;BME280;19509;43.862;26.176;2023-02-04T08:32:28;100219.66;;;3.28;90.40
33153;BME280;19509;43.862;26.176;2023-02-04T08:34:56;100219.59;;;3.45;90.24
33153;BME280;19509;43.862;26.176;2023-02-04T08:37:21;100218.84;;;3.59;89.97
33153;BME280;19509;43.862;26.176;2023-02-04T08:39:47;100218.16;;;3.65;89.82
33153;BME280;19509;43.862;26.176;2023-02-04T08:42:13;100216.66;;;3.71;89.00
33153;BME280;19509;43.862;26.176;2023-02-04T08:44:39;100218.84;;;3.67;89.35
33153;BME280;19509;43.862;26.176;2023-02-04T08:47:04;100223.31;;;3.67;89.32
33153;BME280;19509;43.862;26.176;2023-02-04T08:49:30;100226.50;;;3.62;89.11
33153;BME280;19509;43.862;26.176;2023-02-04T08:51:55;100215.81;;;3.70;90.00
33153;BME280;19509;43.862;26.176;2023-02-04T08:54:21;100221.75;;;3.81;89.25
33153;BME280;19509;43.862;26.176;2023-02-04T08:56:46;100223.19;;;3.60;88.92
33153;BME280;19509;43.862;26.176;2023-02-04T08:59:12;100223.44;;;3.73;89.32
33153;BME280;19509;43.862;26.176;2023-02-04T09:01:37;100231.56;;;3.80;89.04
33153;BME280;19509;43.862;26.176;2023-02-04T09:04:02;100224.22;;;3.82;88.62
33153;BME280;19509;43.862;26.176;2023-02-04T09:06:28;100221.22;;;3.85;88.57
33153;BME280;19509;43.862;26.176;2023-02-04T09:08:53;100219.44;;;4.00;88.13
33153;BME280;19509;43.862;26.176;2023-02-04T09:11:19;100214.78;;;4.02;88.75
33153;BME280;19509;43.862;26.176;2023-02-04T09:13:44;100217.09;;;4.06;88.21
33153;BME280;19509;43.862;26.176;2023-02-04T09:16:09;100210.63;;;4.00;87.24
33153;BME280;19509;43.862;26.176;2023-02-04T09:18:35;100216.53;;;3.87;88.42
33153;BME280;19509;43.862;26.176;2023-02-04T09:21:01;100208.94;;;3.84;88.61
33153;BME280;19509;43.862;26.176;2023-02-04T09:23:26;100208.38;;;3.89;88.44
33153;BME280;19509;43.862;26.176;2023-02-04T09:25:52;100199.22;;;3.91;89.16
33153;BME280;19509;43.862;26.176;2023-02-04T09:28:17;100210.81;;;3.98;87.91
33153;BME280;19509;43.862;26.176;2023-02-04T09:30:44;100205.91;;;4.10;88.04
33153;BME280;19509;43.862;26.176;2023-02-04T09:33:11;100208.53;;;4.18;87.72
33153;BME280;19509;43.862;26.176;2023-02-04T09:35:37;100205.56;;;4.13;87.83
33153;BME280;19509;43.862;26.176;2023-02-04T09:38:03;100214.69;;;4.19;87.43
33153;BME280;19509;43.862;26.176;2023-02-04T09:40:32;100203.94;;;4.27;87.19
33153;BME280;19509;43.862;26.176;2023-02-04T09:43:02;100201.28;;;4.27;86.34
33153;BME280;19509;43.862;26.176;2023-02-04T09:45:31;100199.91;;;4.31;87.33
33153;BME280;19509;43.862;26.176;2023-02-04T09:47:59;100196.94;;;4.49;84.88
33153;BME280;19509;43.862;26.176;2023-02-04T09:50:27;100207.53;;;4.57;85.20
33153;BME280;19509;43.862;26.176;2023-02-04T09:52:55;100204.81;;;4.65;84.85
33153;BME280;19509;43.862;26.176;2023-02-04T09:55:27;100204.00;;;4.80;84.32
33153;BME280;19509;43.862;26.176;2023-02-04T09:57:55;100207.53;;;4.72;84.56
33153;BME280;19509;43.862;26.176;2023-02-04T10:00:23;100205.06;;;4.70;85.88
33153;BME280;19509;43.862;26.176;2023-02-04T10:02:49;100203.69;;;4.60;83.67
33153;BME280;19509;43.862;26.176;2023-02-04T10:05:23;100205.47;;;4.44;85.78
33153;BME280;19509;43.862;26.176;2023-02-04T10:07:51;100209.34;;;3.96;85.21
33153;BME280;19509;43.862;26.176;2023-02-04T10:10:22;100207.56;;;3.88;85.09
33153;BME280;19509;43.862;26.176;2023-02-04T10:12:51;100210.53;;;3.62;85.35
33153;BME280;19509;43.862;26.176;2023-02-04T10:15:18;100208.91;;;3.53;86.51
33153;BME280;19509;43.862;26.176;2023-02-04T10:17:48;100203.09;;;3.58;85.68
33153;BME280;19509;43.862;26.176;2023-02-04T10:20:17;100209.72;;;3.62;85.59
33153;BME280;19509;43.862;26.176;2023-02-04T10:22:45;100209.66;;;3.70;87.23
33153;BME280;19509;43.862;26.176;2023-02-04T10:25:15;100210.88;;;3.59;86.84
33153;BME280;19509;43.862;26.176;2023-02-04T10:27:57;100204.69;;;3.67;87.59
33153;BME280;19509;43.862;26.176;2023-02-04T10:30:28;100214.72;;;3.88;87.67
33153;BME280;19509;43.862;26.176;2023-02-04T10:32:59;100206.56;;;4.12;86.14
33153;BME280;19509;43.862;26.176;2023-02-04T10:35:44;100212.16;;;4.40;85.50
33153;BME280;19509;43.862;26.176;2023-02-04T10:38:10;100211.13;;;4.64;84.16
33153;BME280;19509;43.862;26.176;2023-02-04T10:40:36;100208.41;;;4.87;83.08
33153;BME280;19509;43.862;26.176;2023-02-04T10:43:17;100204.00;;;4.80;83.17
33153;BME280;19509;43.862;26.176;2023-02-04T10:45:53;100202.72;;;4.90;82.56
33153;BME280;19509;43.862;26.176;2023-02-04T10:48:19;100209.38;;;4.71;80.93
33153;BME280;19509;43.862;26.176;2023-02-04T10:50:45;100200.59;;;4.48;81.03
33153;BME280;19509;43.862;26.176;2023-02-04T10:53:15;100203.22;;;4.71;81.10
33153;BME280;19509;43.862;26.176;2023-02-04T10:55:59;100199.03;;;4.77;79.68
33153;BME280;19509;43.862;26.176;2023-02-04T10:58:29;100198.75;;;5.16;80.66
33153;BME280;19509;43.862;26.176;2023-02-04T11:00:56;100180.44;;;5.13;77.58
33153;BME280;19509;43.862;26.176;2023-02-04T11:03:23;100200.50;;;4.79;78.31
33153;BME280;19509;43.862;26.176;2023-02-04T11:05:50;100201.06;;;5.04;78.73
33153;BME280;19509;43.862;26.176;2023-02-04T11:08:21;100203.16;;;4.94;77.22
33153;BME280;19509;43.862;26.176;2023-02-04T11:10:57;100201.69;;;4.91;78.98
33153;BME280;19509;43.862;26.176;2023-02-04T11:13:39;100205.94;;;5.15;77.95
33153;BME280;19509;43.862;26.176;2023-02-04T11:18:58;100204.16;;;5.52;78.23
33153;BME280;19509;43.862;26.176;2023-02-04T11:26:39;100201.16;;;4.96;76.54
33153;BME280;19509;43.862;26.176;2023-02-04T11:34:25;100198.72;;;5.45;76.40
33153;BME280;19509;43.862;26.176;2023-02-04T11:39:57;100200.22;;;5.84;76.80
33153;BME280;19509;43.862;26.176;2023-02-04T11:42:41;100202.13;;;5.54;75.42
33153;BME280;19509;43.862;26.176;2023-02-04T11:48:01;100203.25;;;5.45;75.40
33153;BME280;19509;43.862;26.176;2023-02-04T11:50:32;100198.31;;;5.27;74.96
33153;BME280;19509;43.862;26.176;2023-02-04T11:52:59;100197.84;;;5.24;76.98
33153;BME280;19509;43.862;26.176;2023-02-04T11:55:27;100195.06;;;5.32;75.47
33153;BME280;19509;43.862;26.176;2023-02-04T11:57:55;100202.97;;;5.55;77.12
33153;BME280;19509;43.862;26.176;2023-02-04T12:00:31;100196.03;;;5.60;76.14
33153;BME280;19509;43.862;26.176;2023-02-04T12:03:01;100200.91;;;5.57;75.48
33153;BME280;19509;43.862;26.176;2023-02-04T12:05:42;100190.63;;;5.54;76.00
33153;BME280;19509;43.862;26.176;2023-02-04T12:13:23;100193.97;;;4.96;77.03
33153;BME280;19509;43.862;26.176;2023-02-04T12:16:01;100204.34;;;4.91;74.00
33153;BME280;19509;43.862;26.176;2023-02-04T12:18:27;100202.00;;;4.96;71.67
33153;BME280;19509;43.862;26.176;2023-02-04T12:20:55;100205.28;;;4.98;71.41
33153;BME280;19509;43.862;26.176;2023-02-04T12:23:21;100203.72;;;4.89;74.50
33153;BME280;19509;43.862;26.176;2023-02-04T12:25:47;100233.88;;;4.90;73.99
33153;BME280;19509;43.862;26.176;2023-02-04T12:28:13;100215.94;;;4.98;69.90
33153;BME280;19509;43.862;26.176;2023-02-04T12:30:39;100213.19;;;4.77;70.84
33153;BME280;19509;43.862;26.176;2023-02-04T12:33:04;100220.81;;;4.80;69.95
33153;BME280;19509;43.862;26.176;2023-02-04T12:35:29;100227.63;;;4.83;71.21
33153;BME280;19509;43.862;26.176;2023-02-04T12:37:55;100228.88;;;4.72;71.74
33153;BME280;19509;43.862;26.176;2023-02-04T12:40:20;100222.56;;;4.73;71.23
33153;BME280;19509;43.862;26.176;2023-02-04T12:42:46;100219.94;;;4.65;72.37
33153;BME280;19509;43.862;26.176;2023-02-04T12:45:13;100234.47;;;4.62;70.50
33153;BME280;19509;43.862;26.176;2023-02-04T12:47:39;100234.94;;;4.66;69.61
33153;BME280;19509;43.862;26.176;2023-02-04T12:50:06;100232.56;;;4.71;70.12
33153;BME280;19509;43.862;26.176;2023-02-04T12:52:32;100245.41;;;4.67;70.00
33153;BME280;19509;43.862;26.176;2023-02-04T12:54:57;100234.88;;;4.51;69.83
33153;BME280;19509;43.862;26.176;2023-02-04T12:57:25;100242.63;;;4.61;68.59
33153;BME280;19509;43.862;26.176;2023-02-04T12:59:51;100239.81;;;4.62;69.90
33153;BME280;19509;43.862;26.176;2023-02-04T13:02:16;100241.78;;;4.45;69.25
33153;BME280;19509;43.862;26.176;2023-02-04T13:04:42;100250.72;;;4.53;69.07
33153;BME280;19509;43.862;26.176;2023-02-04T13:07:08;100247.94;;;4.46;71.51
33153;BME280;19509;43.862;26.176;2023-02-04T13:09:35;100253.53;;;4.51;70.20
33153;BME280;19509;43.862;26.176;2023-02-04T13:12:01;100252.72;;;4.50;71.00